Amunt
Inicio > meteoXarxa
Fes-te'n soci

METEOXARXA

Benicàssim
Ubicació CEIP Palmerar
Comarca la Plana Alta
Altitud (msnm) 9
Posició geogràfica 40° 3' 22.68" N, 00° 3' 56.52" E
Model Davis Vantage Pro2 Plus (aspirada)
Presa de dades
Font de les dades MeteoBenicassim
Estadístiques. Resum
Data Temperatura (ºC) Humitat (%) Pressió (hPa) Vent (km/h) Precipit. (mm)
Mínima Mitjana Màxima Mínima Mitjana Màxima Mínima Mitjana Màxima Predom. Mitjana Ràfega màxima Total Dies de pluja
Mínima Mitjana Màxima Mínima Mitjana Màxima
Últimes dades diàries
27-03-2017 10,3     14,1     16,6 ESE 3,3 20,9 1,8  
26-03-2017 10,1     14,0     16,5 E 4,3 20,9 0,0  
25-03-2017 5,9     12,5     17,7 SSW 8,7 53,1 0,0  
24-03-2017 7,8     11,4     14,4 NE 7,7 33,8 0,0  
23-03-2017 9,7     13,3     16,4 SW 6,8 29,0 0,0  
22-03-2017 8,2     14,1     20,7 S 5,2 38,6 0,0  
21-03-2017 7,8     13,1     17,1 E 3,1 25,7 0,0  
20-03-2017 7,6     12,4     16,8 ESE 1,7 14,5 0,0  
19-03-2017 7,0     12,5     16,8 ESE 1,6 16,1 0,0  
18-03-2017 3,9     11,3     17,6 SSE 1,6 16,1 0,0  
17-03-2017 5,2     11,5     17,1 S 2,0 16,1 0,0  
16-03-2017 6,8     12,4     16,9 SSE 1,1 12,9 0,0  
15-03-2017 10,1     15,5     18,7 ENE 5,9 35,4 0,0  
14-03-2017 12,6     15,6     18,7 ENE 8,1 37,0 0,0  
13-03-2017 9,4     13,2     16,4 NNE 17,7 61,2 9,4  
12-03-2017 10,6     14,6     18,9 .. 6,6 61,2 2,8  
11-03-2017 8,5     13,0     16,5 ESE 1,5 16,1 0,2  
09-03-2017 8,1     15,3     24,6 SE 0,7 12,9 0,0  
08-03-2017 17,8     19,3     20,1 NW 7,8 30,6 0,0  
07-03-2017 9,8     16,7     23,7 N 2,7 37,0 0,0  
06-03-2017 12,1     18,4     26,0 NW 6,4 56,3 0,0  
05-03-2017 7,0     12,9     19,1 SSW 1,1 16,1 0,0  
04-03-2017 7,7     11,4     15,9 WSW 9,3 43,5 0,2  
03-03-2017 8,4     12,3     15,4 WSW 4,2 62,8 6,2  
02-03-2017 7,2     12,2     16,9 E 1,8 19,3 0,2  
01-03-2017 5,9     12,4     16,5 SE 1,2 17,7 0,0  
28-02-2017 7,8     13,5     19,5 W 3,2 35,4 0,0  
27-02-2017 7,2     11,2     15,4 ESE 1,7 17,7 0,2  
26-02-2017 8,4     12,5     15,7 ESE 1,4 14,5 0,0  
25-02-2017 4,6     11,4     15,3 ENE 2,4 22,5 0,0  
24-02-2017 10,4     12,8     14,9 SSE 1,6 16,1 7,4  
23-02-2017 9,8     13,3     17,1 ESE 1,2 17,7 0,0  
Dades del mes en curs (actualitzades fins l'últim dia disponible)
03/2017 3,9 8,7 17,8 13,7 14,4 18,2 26,0   4,7 62,8 20,8  
Últimes dades mensuals
02/2017 3,6 8,2 13,3 12,4 13,9 16,6 22,3 6,0 98,2 21,0 9
01/2017 2,2 6,1 12,9 10,5 9,8 14,3 18,6 7,6 93,3 134,8 8
12/2016 1,8 8,1 15,7 12,1 12,4 16,4 18,8 4,6 61,2 97,6 15
11/2016 4,6 10,2 16,3 14,8 14,2 19,0 26,2 4,1 66,0 104,0 14
10/2016 10,6 16,6 20,2 20,2 19,4 23,6 26,2 1,8 40,2 15,6 10
09/2016 14,0 19,3 23,7 23,4 18,6 27,1 31,3 2,7 61,2 30,2 5
08/2016 18,2 21,6 24,9 25,5 26,8 28,6 31,5 2,8 48,3 11,8 5
07/2016 17,7 21,6 23,7 25,5 25,4 28,3 30,4 3,3 38,6 0,0 0
06/2016 13,2 18,5 23,4 22,5 22,4 25,7 32,9 3,8 59,5 2,4 1
05/2016 8,6 14,2 18,1 18,1 17,5 21,3 29,8 5,0 62,8 24,4 10
04/2016 5,9 11,6 14,2 15,6 15,4 19,5 27,9 6,1 83,7 30,2 9
03/2016 3,4 8,6 12,1 13,0 12,6 16,9 23,4 7,2 83,7 29,8 7
02/2016 0,1 7,5 15,5 12,7 11,7 17,5 26,1 8,1 88,5 4,2 4
Dades de l'any en curs (actualitzades fins l'últim dia disponible)
2017 2,2 7,6 17,8 12,1 9,8 16,2 26,0   6,2 98,2 176,6  
Últimes dades anuals
2011 -2,8 13,3 24,7 17,5 9,1 21,3 37,1 5,8 90,1 481,0 87
2012 324,8
2013 0,9 12,9 17,3 17,4 20,3 21,4 31,6 6,9 111,0 295,8 69
2014 -0,3 14,0 25,7 18,1 12,3 21,9 33,7 6,3 88,5 279,6 67
2015 -0,4 13,4 20,9 17,8 20,5 21,9 35,7 6,2 123,9 387,8 98
2016 0,1 13,8 24,9 18,0 11,7 21,8 32,9 4,5 88,5 351,4 86